createdAt,value
2018-12-06T00:01:38.233Z,5.53
2018-12-06T00:04:06.565Z,5.73
2018-12-06T00:06:34.887Z,5.10
2018-12-06T00:09:03.283Z,5.60
2018-12-06T00:11:31.602Z,5.13
2018-12-06T00:13:59.899Z,5.40
2018-12-06T00:16:28.259Z,4.63
2018-12-06T00:19:10.004Z,5.30
2018-12-06T00:21:38.362Z,5.80
2018-12-06T00:24:06.671Z,6.10
2018-12-06T00:26:35.217Z,6.10
2018-12-06T00:29:03.540Z,5.23
2018-12-06T00:31:31.839Z,5.80
2018-12-06T00:34:00.199Z,6.37
2018-12-06T00:36:28.545Z,5.33
2018-12-06T00:38:56.904Z,7.60
2018-12-06T00:41:25.310Z,7.53
2018-12-06T00:43:53.690Z,5.93
2018-12-06T00:46:22.101Z,6.43
2018-12-06T00:48:50.549Z,7.00
2018-12-06T00:51:19.137Z,5.97
2018-12-06T00:53:47.474Z,5.63
2018-12-06T00:56:15.750Z,7.00
2018-12-06T00:58:44.062Z,6.20
2018-12-06T01:01:12.750Z,5.87
2018-12-06T01:03:41.179Z,5.90
2018-12-06T01:06:09.525Z,6.57
2018-12-06T01:08:37.932Z,5.20
2018-12-06T01:11:06.239Z,5.50
2018-12-06T01:13:34.549Z,6.60
2018-12-06T01:16:02.869Z,5.90
2018-12-06T01:18:31.211Z,5.83
2018-12-06T01:20:59.516Z,5.60
2018-12-06T01:23:27.919Z,6.90
2018-12-06T01:25:56.217Z,6.80
2018-12-06T01:28:24.550Z,6.73
2018-12-06T01:30:52.915Z,6.13
2018-12-06T01:33:21.295Z,5.97
2018-12-06T01:35:49.604Z,6.00
2018-12-06T01:38:17.917Z,7.10
2018-12-06T01:40:46.246Z,6.00
2018-12-06T01:43:14.633Z,5.97
2018-12-06T01:45:42.931Z,4.80
2018-12-06T01:48:11.543Z,5.63
2018-12-06T01:50:39.838Z,5.87
2018-12-06T01:53:08.209Z,5.10
2018-12-06T01:55:36.578Z,6.40
2018-12-06T01:58:04.877Z,5.17
2018-12-06T02:00:33.240Z,5.07
2018-12-06T02:03:01.550Z,5.80
2018-12-06T02:05:29.857Z,5.87
2018-12-06T02:07:58.157Z,6.00
2018-12-06T02:10:26.441Z,5.53
2018-12-06T02:12:54.739Z,6.00
2018-12-06T02:15:23.138Z,5.73
2018-12-06T02:17:51.564Z,6.13
2018-12-06T02:20:19.953Z,5.93
2018-12-06T02:22:48.249Z,5.60
2018-12-06T02:25:16.550Z,5.83
2018-12-06T02:27:44.845Z,5.73
2018-12-06T02:30:13.463Z,6.07
2018-12-06T02:32:41.951Z,5.40
2018-12-06T02:35:10.330Z,5.87
2018-12-06T02:37:38.629Z,7.07
2018-12-06T02:40:07.845Z,5.90
2018-12-06T02:42:36.193Z,5.70
2018-12-06T02:45:05.883Z,5.67
2018-12-06T02:47:34.171Z,6.07
2018-12-06T02:50:02.553Z,6.00
2018-12-06T02:52:30.843Z,5.50
2018-12-06T02:54:59.249Z,5.97
2018-12-06T02:57:27.524Z,5.57
2018-12-06T02:59:55.865Z,5.23
2018-12-06T03:02:24.179Z,5.33
2018-12-06T03:04:52.512Z,5.93
2018-12-06T03:07:20.817Z,5.20
2018-12-06T03:09:49.113Z,7.00
2018-12-06T03:12:17.407Z,5.03
2018-12-06T03:14:45.849Z,5.83
2018-12-06T03:17:14.226Z,5.60
2018-12-06T03:19:42.509Z,5.73
2018-12-06T03:22:11.022Z,5.57
2018-12-06T03:24:39.302Z,6.37
2018-12-06T03:27:07.664Z,6.00
2018-12-06T03:29:36.081Z,5.77
2018-12-06T03:32:04.586Z,6.00
2018-12-06T03:34:33.072Z,4.63
2018-12-06T03:37:01.547Z,6.00
2018-12-06T03:39:29.927Z,5.27
2018-12-06T03:41:58.457Z,4.90
2018-12-06T03:44:26.887Z,7.63
2018-12-06T03:46:55.402Z,5.17
2018-12-06T03:49:23.682Z,6.20
2018-12-06T03:51:51.985Z,5.10
2018-12-06T03:54:20.274Z,6.07
2018-12-06T03:56:48.560Z,4.70
2018-12-06T03:59:17.049Z,6.00
2018-12-06T04:01:45.429Z,5.67
2018-12-06T04:04:13.765Z,5.30
2018-12-06T04:06:42.095Z,7.13
2018-12-06T04:09:10.489Z,4.73
2018-12-06T04:11:38.842Z,4.60
2018-12-06T04:14:07.147Z,4.50
2018-12-06T04:16:35.472Z,5.30
2018-12-06T04:19:03.782Z,5.20
2018-12-06T04:21:32.250Z,4.93
2018-12-06T04:24:00.584Z,4.57
2018-12-06T04:26:28.971Z,5.00
2018-12-06T04:28:57.424Z,5.10
2018-12-06T04:31:25.757Z,4.50
2018-12-06T04:33:54.170Z,4.60
2018-12-06T04:36:22.486Z,4.80
2018-12-06T04:38:50.884Z,4.60
2018-12-06T04:41:19.190Z,4.40
2018-12-06T04:43:47.527Z,5.40
2018-12-06T04:46:15.874Z,5.47
2018-12-06T04:48:44.243Z,5.20
2018-12-06T04:51:12.688Z,3.97
2018-12-06T04:53:41.137Z,5.50
2018-12-06T04:56:09.589Z,4.80
2018-12-06T04:58:38.018Z,5.20
2018-12-06T05:01:06.313Z,4.83
2018-12-06T05:03:34.843Z,5.50
2018-12-06T05:06:03.238Z,4.10
2018-12-06T05:08:31.571Z,4.20
2018-12-06T05:10:59.880Z,5.43
2018-12-06T05:13:28.231Z,4.93
2018-12-06T05:15:56.581Z,4.30
2018-12-06T05:18:25.000Z,4.73
2018-12-06T05:20:53.315Z,4.47
2018-12-06T05:23:21.643Z,4.13
2018-12-06T05:25:49.963Z,5.53
2018-12-06T05:28:18.416Z,4.40
2018-12-06T05:30:46.737Z,4.83
2018-12-06T05:33:15.071Z,4.10
2018-12-06T05:35:43.441Z,5.00
2018-12-06T05:38:11.762Z,4.43
2018-12-06T05:40:40.108Z,5.60
2018-12-06T05:43:08.433Z,4.70
2018-12-06T05:45:36.842Z,4.60
2018-12-06T05:48:05.148Z,3.93
2018-12-06T05:50:33.493Z,5.87
2018-12-06T05:53:01.791Z,4.40
2018-12-06T05:55:31.156Z,4.40
2018-12-06T05:57:59.588Z,5.23
2018-12-06T06:00:27.995Z,4.53
2018-12-06T06:02:56.368Z,6.23
2018-12-06T06:05:24.710Z,4.57
2018-12-06T06:07:53.036Z,4.40
2018-12-06T06:10:21.362Z,4.60
2018-12-06T06:12:49.665Z,4.47
2018-12-06T06:15:17.992Z,5.23
2018-12-06T06:17:46.304Z,4.80
2018-12-06T06:20:14.624Z,4.30
2018-12-06T06:22:42.936Z,4.83
2018-12-06T06:25:11.338Z,5.07
2018-12-06T06:27:39.674Z,4.20
2018-12-06T06:30:08.255Z,4.53
2018-12-06T06:32:36.560Z,5.10
2018-12-06T06:35:05.724Z,5.33
2018-12-06T06:37:34.029Z,4.40
2018-12-06T06:40:02.623Z,5.40
2018-12-06T06:42:30.940Z,4.80
2018-12-06T06:44:59.273Z,5.10
2018-12-06T06:47:28.580Z,5.00
2018-12-06T06:49:57.121Z,4.47
2018-12-06T06:52:25.449Z,5.67
2018-12-06T06:54:53.784Z,4.80
2018-12-06T06:57:22.134Z,6.50
2018-12-06T06:59:50.576Z,4.87
2018-12-06T07:02:18.960Z,4.73
2018-12-06T07:04:47.282Z,4.27
2018-12-06T07:07:15.636Z,4.57
2018-12-06T07:09:43.955Z,5.10
2018-12-06T07:12:12.264Z,4.57
2018-12-06T07:14:40.573Z,5.43
2018-12-06T07:17:08.887Z,4.50
2018-12-06T07:19:37.202Z,5.20
2018-12-06T07:22:05.648Z,6.00
2018-12-06T07:24:33.995Z,5.10
2018-12-06T07:27:02.325Z,5.90
2018-12-06T07:29:30.620Z,4.80
2018-12-06T07:31:59.014Z,5.20
2018-12-06T07:34:27.315Z,4.60
2018-12-06T07:36:55.639Z,5.70
2018-12-06T07:39:23.943Z,4.87
2018-12-06T07:41:52.272Z,4.80
2018-12-06T07:44:20.705Z,4.30
2018-12-06T07:46:49.039Z,4.93
2018-12-06T07:49:17.361Z,4.70
2018-12-06T07:51:45.709Z,4.73
2018-12-06T07:54:14.138Z,5.20
2018-12-06T07:56:42.559Z,5.13
2018-12-06T07:59:10.944Z,4.53
2018-12-06T08:01:39.259Z,4.30
2018-12-06T08:04:07.629Z,5.07
2018-12-06T08:06:36.088Z,4.60
2018-12-06T08:09:06.877Z,4.53
2018-12-06T08:11:35.211Z,4.77
2018-12-06T08:14:03.677Z,4.30
2018-12-06T08:16:32.571Z,4.07
2018-12-06T08:19:00.931Z,4.17
2018-12-06T08:21:29.248Z,4.43
2018-12-06T08:23:57.721Z,4.73
2018-12-06T08:26:26.080Z,4.80
2018-12-06T08:28:54.389Z,5.27
2018-12-06T08:31:22.755Z,4.60
2018-12-06T08:33:51.095Z,5.43
2018-12-06T08:36:19.451Z,4.73
2018-12-06T08:38:47.885Z,5.10
2018-12-06T08:41:16.283Z,4.83
2018-12-06T08:43:44.651Z,3.53
2018-12-06T08:46:12.953Z,4.23
2018-12-06T08:48:41.298Z,5.47
2018-12-06T08:51:09.611Z,4.27
2018-12-06T08:53:37.958Z,4.67
2018-12-06T08:56:06.265Z,4.33
2018-12-06T08:58:34.623Z,4.67
2018-12-06T09:01:02.919Z,5.27
2018-12-06T09:03:31.251Z,4.80
2018-12-06T09:05:59.564Z,4.93
2018-12-06T09:08:27.927Z,5.27
2018-12-06T09:10:56.231Z,4.20
2018-12-06T09:13:24.551Z,4.10
2018-12-06T09:15:52.862Z,4.50
2018-12-06T09:18:21.198Z,3.93
2018-12-06T09:20:49.737Z,5.23
2018-12-06T09:23:18.068Z,4.57
2018-12-06T09:25:46.435Z,4.70
2018-12-06T09:28:14.889Z,4.60
2018-12-06T09:30:43.319Z,5.37
2018-12-06T09:33:11.648Z,4.77
2018-12-06T09:35:40.753Z,4.23
2018-12-06T09:38:09.209Z,4.70
2018-12-06T09:40:37.576Z,4.40
2018-12-06T09:43:06.043Z,4.60
2018-12-06T09:45:34.371Z,3.73
2018-12-06T09:48:02.709Z,5.23
2018-12-06T09:50:31.026Z,4.37
2018-12-06T09:52:59.353Z,3.97
2018-12-06T09:55:27.670Z,4.27
2018-12-06T09:57:55.979Z,4.80
2018-12-06T10:00:24.301Z,4.73
2018-12-06T10:02:52.616Z,3.70
2018-12-06T10:05:20.948Z,4.27
2018-12-06T10:07:49.248Z,3.70
2018-12-06T10:10:17.570Z,5.07
2018-12-06T10:12:45.895Z,4.50
2018-12-06T10:15:14.351Z,4.20
2018-12-06T10:17:42.663Z,3.80
2018-12-06T10:20:11.117Z,4.83
2018-12-06T10:22:39.421Z,3.80
2018-12-06T10:25:07.856Z,4.20
2018-12-06T10:27:36.163Z,3.97
2018-12-06T10:30:06.879Z,4.37
2018-12-06T10:32:35.271Z,3.80
2018-12-06T10:35:03.773Z,4.57
2018-12-06T10:37:32.085Z,4.50
2018-12-06T10:40:00.426Z,4.67
2018-12-06T10:42:28.823Z,4.10
2018-12-06T10:44:57.134Z,3.97
2018-12-06T10:47:25.465Z,4.60
2018-12-06T10:49:53.770Z,4.17
2018-12-06T10:52:22.103Z,3.60
2018-12-06T10:54:50.428Z,4.40
2018-12-06T10:57:18.758Z,4.30
2018-12-06T10:59:47.071Z,4.30
2018-12-06T11:02:20.905Z,3.87
2018-12-06T11:04:49.209Z,5.03
2018-12-06T11:07:17.557Z,3.80
2018-12-06T11:09:45.970Z,4.07
2018-12-06T11:12:14.292Z,4.17
2018-12-06T11:14:42.666Z,3.80
2018-12-06T11:17:11.033Z,4.17
2018-12-06T11:19:39.360Z,4.20
2018-12-06T11:22:07.876Z,3.80
2018-12-06T11:25:06.424Z,4.70
2018-12-06T11:27:34.749Z,4.43
2018-12-06T11:30:09.612Z,3.90
2018-12-06T11:32:37.932Z,3.80
2018-12-06T11:35:06.424Z,3.90
2018-12-06T11:37:34.724Z,8.00
2018-12-06T11:40:05.138Z,3.87
2018-12-06T11:42:33.428Z,3.97
2018-12-06T11:45:01.749Z,4.23
2018-12-06T11:47:30.115Z,4.70
2018-12-06T11:49:58.484Z,4.60
2018-12-06T11:52:26.781Z,4.90
2018-12-06T11:54:55.112Z,6.03
2018-12-06T11:57:23.422Z,4.17
2018-12-06T11:59:51.753Z,4.47
2018-12-06T12:02:20.040Z,4.33
2018-12-06T12:04:48.353Z,4.20
2018-12-06T12:07:16.665Z,4.27
2018-12-06T12:09:44.976Z,5.00
2018-12-06T12:12:13.355Z,4.93
2018-12-06T12:14:41.668Z,4.30
2018-12-06T12:17:09.975Z,5.53
2018-12-06T12:19:38.292Z,4.60
2018-12-06T12:22:06.591Z,4.20
2018-12-06T12:24:34.916Z,5.23
2018-12-06T12:27:03.211Z,4.50
2018-12-06T12:29:31.619Z,5.17
2018-12-06T12:31:59.927Z,5.43
2018-12-06T12:34:28.267Z,5.43
2018-12-06T12:36:56.573Z,4.47
2018-12-06T12:39:24.900Z,4.53
2018-12-06T12:41:53.195Z,6.17
2018-12-06T12:44:21.508Z,4.83
2018-12-06T12:46:49.821Z,5.27
2018-12-06T12:49:18.151Z,4.40
2018-12-06T12:51:46.446Z,4.37
2018-12-06T12:54:14.768Z,5.50
2018-12-06T12:56:43.176Z,5.17
2018-12-06T12:59:11.477Z,5.07
2018-12-06T13:01:39.791Z,5.63
2018-12-06T13:04:08.170Z,5.50
2018-12-06T13:06:36.459Z,5.07
2018-12-06T13:09:06.776Z,5.20
2018-12-06T13:11:35.077Z,6.10
2018-12-06T13:14:03.435Z,4.60
2018-12-06T13:16:31.803Z,5.43
2018-12-06T13:19:00.105Z,5.00
2018-12-06T13:21:28.655Z,5.30
2018-12-06T13:23:56.961Z,5.20
2018-12-06T13:26:25.328Z,6.13
2018-12-06T13:28:53.643Z,4.90
2018-12-06T13:31:21.940Z,6.37
2018-12-06T13:33:50.354Z,6.33
2018-12-06T13:36:18.655Z,5.47
2018-12-06T13:38:47.017Z,6.30
2018-12-06T13:41:15.387Z,6.27
2018-12-06T13:43:43.688Z,6.30
2018-12-06T13:46:12.242Z,6.40
2018-12-06T13:48:40.626Z,4.87
2018-12-06T13:51:08.915Z,6.23
2018-12-06T13:53:37.232Z,6.10
2018-12-06T13:56:05.652Z,5.13
2018-12-06T13:58:34.121Z,6.10
2018-12-06T14:01:02.727Z,6.37
2018-12-06T14:03:31.217Z,5.93
2018-12-06T14:05:59.532Z,5.87
2018-12-06T14:08:27.836Z,5.93
2018-12-06T14:10:56.167Z,6.30
2018-12-06T14:13:24.478Z,6.03
2018-12-06T14:15:52.770Z,6.87
2018-12-06T14:18:21.088Z,5.53
2018-12-06T14:20:49.409Z,9.70
2018-12-06T14:23:17.965Z,7.00
2018-12-06T14:25:46.364Z,6.37
2018-12-06T14:28:14.673Z,6.93
2018-12-06T14:30:42.992Z,7.60
2018-12-06T14:33:11.294Z,8.13
2018-12-06T14:35:39.693Z,8.03
2018-12-06T14:38:08.035Z,8.17
2018-12-06T14:40:36.339Z,8.13
2018-12-06T14:43:04.782Z,7.60
2018-12-06T14:45:33.362Z,7.80
2018-12-06T14:48:01.674Z,7.43
2018-12-06T14:50:29.987Z,8.30
2018-12-06T14:52:58.290Z,6.87
2018-12-06T14:55:26.650Z,7.73
2018-12-06T14:57:54.949Z,7.10
2018-12-06T15:00:23.329Z,8.00
2018-12-06T15:02:51.629Z,7.93
2018-12-06T15:05:19.942Z,6.57
2018-12-06T15:07:48.261Z,6.87
2018-12-06T15:10:16.567Z,7.53
2018-12-06T15:12:44.895Z,7.70
2018-12-06T15:15:13.188Z,6.60
2018-12-06T15:17:41.515Z,7.67
2018-12-06T15:20:09.879Z,7.20
2018-12-06T15:22:38.229Z,7.30
2018-12-06T15:25:06.968Z,7.77
2018-12-06T15:27:35.397Z,7.60
2018-12-06T15:30:05.725Z,8.10
2018-12-06T15:32:34.049Z,7.50
2018-12-06T15:35:02.361Z,7.67
2018-12-06T15:37:30.660Z,7.97
2018-12-06T15:39:58.985Z,7.53
2018-12-06T15:42:27.298Z,8.50
2018-12-06T15:44:55.618Z,8.03
2018-12-06T15:47:23.912Z,8.47
2018-12-06T15:49:52.235Z,8.10
2018-12-06T15:52:20.546Z,9.20
2018-12-06T15:54:48.995Z,8.83
2018-12-06T15:57:17.301Z,9.30
2018-12-06T15:59:45.611Z,9.33
2018-12-06T16:02:13.916Z,9.07
2018-12-06T16:04:42.235Z,10.13
2018-12-06T16:07:10.566Z,10.53
2018-12-06T16:09:38.870Z,9.20
2018-12-06T16:12:07.179Z,8.83
2018-12-06T16:14:35.499Z,9.20
2018-12-06T16:17:03.792Z,9.40
2018-12-06T16:19:32.123Z,10.33
2018-12-06T16:22:00.443Z,10.80
2018-12-06T16:24:28.763Z,11.90
2018-12-06T16:26:57.078Z,11.87
2018-12-06T16:29:25.397Z,11.90
2018-12-06T16:31:53.796Z,11.43
2018-12-06T16:34:22.124Z,13.07
2018-12-06T16:36:50.436Z,11.10
2018-12-06T16:39:18.889Z,13.50
2018-12-06T17:18:45.662Z,14.70
2018-12-06T17:21:14.041Z,16.00
2018-12-06T17:23:42.352Z,14.00
2018-12-06T17:28:38.568Z,15.20
2018-12-06T17:31:06.945Z,14.33
2018-12-06T17:33:35.262Z,12.70
2018-12-06T17:36:03.596Z,13.53
2018-12-06T17:38:31.892Z,14.23
2018-12-06T17:41:00.215Z,13.87
2018-12-06T17:43:28.511Z,14.80
2018-12-06T17:45:56.838Z,14.50
2018-12-06T17:48:25.250Z,14.10
2018-12-06T17:50:53.581Z,13.03
2018-12-06T17:53:21.879Z,12.90
2018-12-06T17:55:53.207Z,13.37
2018-12-06T17:58:21.575Z,13.43
2018-12-06T18:00:49.959Z,13.00
2018-12-06T18:03:18.269Z,13.40
2018-12-06T18:05:46.609Z,13.00
2018-12-06T18:08:14.951Z,13.20
2018-12-06T18:10:43.267Z,15.27
2018-12-06T18:13:11.567Z,13.20
2018-12-06T18:30:27.304Z,13.30
2018-12-06T18:32:55.635Z,13.40
2018-12-06T18:40:19.820Z,13.65
2018-12-06T18:57:35.486Z,14.00
2018-12-06T19:00:04.971Z,14.27
2018-12-06T19:02:33.336Z,13.37
2018-12-06T19:05:01.633Z,14.40
2018-12-06T19:07:30.028Z,13.40
2018-12-06T19:09:58.382Z,13.47
2018-12-06T19:12:26.693Z,13.43
2018-12-06T19:14:55.014Z,15.00
2018-12-06T19:17:23.351Z,13.47
2018-12-06T19:19:51.676Z,13.97
2018-12-06T19:22:19.988Z,14.10
2018-12-06T19:24:48.319Z,14.33
2018-12-06T19:27:16.638Z,14.80
2018-12-06T19:29:44.948Z,13.83
2018-12-06T19:32:13.329Z,14.63
2018-12-06T19:34:41.936Z,14.33
2018-12-06T19:37:10.275Z,14.93
2018-12-06T19:39:38.600Z,14.33
2018-12-06T19:42:06.934Z,14.87
2018-12-06T19:44:35.256Z,14.93
2018-12-06T19:47:03.580Z,14.90
2018-12-06T19:49:31.900Z,14.10
2018-12-06T19:52:00.372Z,14.63
2018-12-06T19:54:28.691Z,13.50
2018-12-06T19:56:57.001Z,13.97
2018-12-06T19:59:25.338Z,14.97
2018-12-06T20:01:53.642Z,14.80
2018-12-06T20:04:21.980Z,14.33
2018-12-06T20:06:50.286Z,14.73
2018-12-06T20:09:18.616Z,15.13
2018-12-06T20:11:46.927Z,15.07
2018-12-06T20:14:15.261Z,14.00
2018-12-06T20:16:43.572Z,13.70
2018-12-06T20:19:11.896Z,15.23
2018-12-06T20:21:40.223Z,13.60
2018-12-06T20:24:08.553Z,14.00
2018-12-06T20:26:36.894Z,14.00
2018-12-06T20:29:05.286Z,14.73
2018-12-06T20:31:33.632Z,14.57
2018-12-06T20:34:01.956Z,14.60
2018-12-06T20:36:30.281Z,14.63
2018-12-06T20:38:58.607Z,15.17
2018-12-06T20:41:26.928Z,15.97
2018-12-06T20:43:55.256Z,15.20
2018-12-06T20:46:23.569Z,16.20
2018-12-06T20:48:51.904Z,17.90
2018-12-06T20:51:20.228Z,16.80
2018-12-06T20:53:48.564Z,17.67
2018-12-06T20:56:16.888Z,17.90
2018-12-06T20:58:45.211Z,19.03
2018-12-06T21:01:13.530Z,17.47
2018-12-06T21:03:41.833Z,19.30
2018-12-06T21:06:10.163Z,19.57
2018-12-06T21:08:38.484Z,19.90
2018-12-06T21:11:06.802Z,18.93
2018-12-06T21:13:35.151Z,18.63
2018-12-06T21:16:03.528Z,19.07
2018-12-06T21:18:31.843Z,19.00
2018-12-06T21:21:00.176Z,17.87
2018-12-06T21:23:28.526Z,17.70
2018-12-06T21:25:56.851Z,18.97
2018-12-06T21:28:25.300Z,17.57
2018-12-06T21:30:53.628Z,18.90
2018-12-06T21:33:21.949Z,17.70
2018-12-06T21:35:50.304Z,16.70
2018-12-06T21:38:18.622Z,17.10
2018-12-06T21:40:46.960Z,16.50
2018-12-06T21:43:15.276Z,18.00
2018-12-06T21:45:43.597Z,23.03
2018-12-06T21:48:11.917Z,22.63
2018-12-06T21:50:40.319Z,20.10
2018-12-06T21:53:08.692Z,20.70
2018-12-06T21:55:37.000Z,20.13
2018-12-06T21:58:05.457Z,19.97
2018-12-06T22:00:33.785Z,19.30
2018-12-06T22:03:02.106Z,19.80
2018-12-06T22:05:31.350Z,20.13
2018-12-06T22:07:59.741Z,19.77
2018-12-06T22:10:28.059Z,21.00
2018-12-06T22:12:56.499Z,19.63
2018-12-06T22:15:24.817Z,21.90
2018-12-06T22:17:53.130Z,23.03
2018-12-06T22:20:21.456Z,20.60
2018-12-06T22:22:49.787Z,18.17
2018-12-06T22:25:18.094Z,19.20
2018-12-06T22:27:46.427Z,19.23
2018-12-06T22:30:14.818Z,19.13
2018-12-06T22:32:43.138Z,20.47
2018-12-06T22:35:11.666Z,18.73
2018-12-06T22:37:39.997Z,18.70
2018-12-06T22:40:08.355Z,19.13
2018-12-06T22:42:36.688Z,19.50
2018-12-06T22:45:22.599Z,19.33
2018-12-06T22:47:51.120Z,19.87
2018-12-06T22:50:19.415Z,17.83
2018-12-06T22:52:47.806Z,18.50
2018-12-06T22:55:16.214Z,17.20
2018-12-06T22:57:44.526Z,17.70
2018-12-06T23:00:14.861Z,16.90
2018-12-06T23:02:43.219Z,17.23
2018-12-06T23:05:11.533Z,16.23
2018-12-06T23:07:39.907Z,16.23
2018-12-06T23:10:08.409Z,16.73
2018-12-06T23:12:36.717Z,16.30
2018-12-06T23:15:05.867Z,14.73
2018-12-06T23:17:34.164Z,16.07
2018-12-06T23:20:02.931Z,16.50
2018-12-06T23:22:31.240Z,14.63
2018-12-06T23:24:59.562Z,16.50
2018-12-06T23:27:27.884Z,14.80
2018-12-06T23:29:56.264Z,14.10
2018-12-06T23:32:24.650Z,14.50
2018-12-06T23:34:53.195Z,13.60
2018-12-06T23:37:21.492Z,14.07
2018-12-06T23:39:49.808Z,14.57
2018-12-06T23:42:18.121Z,14.17
2018-12-06T23:44:46.447Z,14.47
2018-12-06T23:47:14.768Z,14.17
2018-12-06T23:49:43.072Z,13.60
2018-12-06T23:52:11.399Z,14.00
2018-12-06T23:54:39.723Z,12.87
2018-12-06T23:57:08.036Z,13.57
2018-12-06T23:59:36.413Z,13.20
